sensor_id;sensor_type;location;lat;lon;timestamp;P1;durP1;ratioP1;P2;durP2;ratioP2
3491;SDS011;1760;52.480;13.422;2024-01-15T00:00:31;9.73;;;5.80;;
3491;SDS011;1760;52.480;13.422;2024-01-15T00:02:58;6.80;;;4.60;;
3491;SDS011;1760;52.480;13.422;2024-01-15T00:05:24;10.60;;;5.70;;
3491;SDS011;1760;52.480;13.422;2024-01-15T00:07:51;8.97;;;5.80;;
3491;SDS011;1760;52.480;13.422;2024-01-15T00:10:18;7.17;;;4.93;;
3491;SDS011;1760;52.480;13.422;2024-01-15T00:12:45;11.93;;;6.40;;
3491;SDS011;1760;52.480;13.422;2024-01-15T00:15:14;7.33;;;5.57;;
3491;SDS011;1760;52.480;13.422;2024-01-15T00:17:41;5.00;;;3.80;;
3491;SDS011;1760;52.480;13.422;2024-01-15T00:20:08;10.97;;;6.60;;
3491;SDS011;1760;52.480;13.422;2024-01-15T00:22:36;10.90;;;6.90;;
3491;SDS011;1760;52.480;13.422;2024-01-15T00:25:03;7.63;;;6.00;;
3491;SDS011;1760;52.480;13.422;2024-01-15T00:27:30;8.83;;;6.10;;
3491;SDS011;1760;52.480;13.422;2024-01-15T00:29:57;9.67;;;5.60;;
3491;SDS011;1760;52.480;13.422;2024-01-15T00:32:25;9.10;;;5.20;;
3491;SDS011;1760;52.480;13.422;2024-01-15T00:34:52;11.87;;;6.83;;
3491;SDS011;1760;52.480;13.422;2024-01-15T00:37:19;10.97;;;6.33;;
3491;SDS011;1760;52.480;13.422;2024-01-15T00:39:46;11.67;;;5.90;;
3491;SDS011;1760;52.480;13.422;2024-01-15T00:42:13;9.60;;;5.60;;
3491;SDS011;1760;52.480;13.422;2024-01-15T00:44:40;8.23;;;4.43;;
3491;SDS011;1760;52.480;13.422;2024-01-15T00:47:09;8.30;;;6.07;;
3491;SDS011;1760;52.480;13.422;2024-01-15T00:49:37;9.63;;;6.53;;
3491;SDS011;1760;52.480;13.422;2024-01-15T00:52:05;10.70;;;5.90;;
3491;SDS011;1760;52.480;13.422;2024-01-15T00:54:32;12.20;;;5.30;;
3491;SDS011;1760;52.480;13.422;2024-01-15T00:57:00;8.97;;;4.97;;
3491;SDS011;1760;52.480;13.422;2024-01-15T00:59:27;14.00;;;6.30;;
3491;SDS011;1760;52.480;13.422;2024-01-15T01:01:53;9.33;;;5.43;;
3491;SDS011;1760;52.480;13.422;2024-01-15T01:04:20;8.60;;;5.13;;
3491;SDS011;1760;52.480;13.422;2024-01-15T01:06:48;7.80;;;3.43;;
3491;SDS011;1760;52.480;13.422;2024-01-15T01:09:15;9.83;;;5.80;;
3491;SDS011;1760;52.480;13.422;2024-01-15T01:11:42;10.13;;;6.07;;
3491;SDS011;1760;52.480;13.422;2024-01-15T01:14:09;7.30;;;5.50;;
3491;SDS011;1760;52.480;13.422;2024-01-15T01:16:36;10.57;;;6.63;;
3491;SDS011;1760;52.480;13.422;2024-01-15T01:19:04;8.10;;;4.43;;
3491;SDS011;1760;52.480;13.422;2024-01-15T01:21:31;7.67;;;5.07;;
3491;SDS011;1760;52.480;13.422;2024-01-15T01:24:00;10.83;;;4.93;;
3491;SDS011;1760;52.480;13.422;2024-01-15T01:26:27;9.53;;;5.53;;
3491;SDS011;1760;52.480;13.422;2024-01-15T01:28:54;8.00;;;5.50;;
3491;SDS011;1760;52.480;13.422;2024-01-15T01:31:21;4.90;;;3.30;;
3491;SDS011;1760;52.480;13.422;2024-01-15T01:33:48;8.30;;;4.90;;
3491;SDS011;1760;52.480;13.422;2024-01-15T01:36:15;14.70;;;6.60;;
3491;SDS011;1760;52.480;13.422;2024-01-15T01:38:42;8.17;;;4.70;;
3491;SDS011;1760;52.480;13.422;2024-01-15T01:41:10;10.63;;;6.20;;
3491;SDS011;1760;52.480;13.422;2024-01-15T01:43:37;10.67;;;4.50;;
3491;SDS011;1760;52.480;13.422;2024-01-15T01:46:04;5.03;;;3.33;;
3491;SDS011;1760;52.480;13.422;2024-01-15T01:48:32;10.77;;;6.37;;
3491;SDS011;1760;52.480;13.422;2024-01-15T01:51:00;13.43;;;5.67;;
3491;SDS011;1760;52.480;13.422;2024-01-15T01:53:29;12.07;;;5.77;;
3491;SDS011;1760;52.480;13.422;2024-01-15T01:55:58;9.80;;;5.60;;
3491;SDS011;1760;52.480;13.422;2024-01-15T01:58:27;6.37;;;4.40;;
3491;SDS011;1760;52.480;13.422;2024-01-15T02:00:55;14.40;;;6.83;;
3491;SDS011;1760;52.480;13.422;2024-01-15T02:03:22;13.27;;;5.20;;
3491;SDS011;1760;52.480;13.422;2024-01-15T02:05:49;12.53;;;6.57;;
3491;SDS011;1760;52.480;13.422;2024-01-15T02:08:16;17.03;;;8.97;;
3491;SDS011;1760;52.480;13.422;2024-01-15T02:10:43;12.37;;;7.83;;
3491;SDS011;1760;52.480;13.422;2024-01-15T02:13:10;13.27;;;6.00;;
3491;SDS011;1760;52.480;13.422;2024-01-15T02:15:39;8.97;;;6.00;;
3491;SDS011;1760;52.480;13.422;2024-01-15T02:18:06;11.93;;;6.87;;
3491;SDS011;1760;52.480;13.422;2024-01-15T02:20:33;9.00;;;5.90;;
3491;SDS011;1760;52.480;13.422;2024-01-15T02:23:05;11.30;;;6.10;;
3491;SDS011;1760;52.480;13.422;2024-01-15T02:25:36;6.60;;;4.80;;
3491;SDS011;1760;52.480;13.422;2024-01-15T02:28:04;13.90;;;5.20;;
3491;SDS011;1760;52.480;13.422;2024-01-15T02:30:34;12.63;;;4.77;;
3491;SDS011;1760;52.480;13.422;2024-01-15T02:33:04;10.37;;;5.40;;
3491;SDS011;1760;52.480;13.422;2024-01-15T02:35:31;9.27;;;5.80;;
3491;SDS011;1760;52.480;13.422;2024-01-15T02:37:58;12.00;;;5.70;;
3491;SDS011;1760;52.480;13.422;2024-01-15T02:40:27;8.73;;;4.43;;
3491;SDS011;1760;52.480;13.422;2024-01-15T02:42:54;5.13;;;4.03;;
3491;SDS011;1760;52.480;13.422;2024-01-15T02:45:21;6.03;;;3.73;;
3491;SDS011;1760;52.480;13.422;2024-01-15T02:47:48;9.83;;;5.53;;
3491;SDS011;1760;52.480;13.422;2024-01-15T02:50:15;7.43;;;4.60;;
3491;SDS011;1760;52.480;13.422;2024-01-15T02:52:42;7.90;;;3.63;;
3491;SDS011;1760;52.480;13.422;2024-01-15T02:55:09;6.63;;;4.40;;
3491;SDS011;1760;52.480;13.422;2024-01-15T02:57:37;9.13;;;4.47;;
3491;SDS011;1760;52.480;13.422;2024-01-15T03:00:05;8.60;;;4.50;;
3491;SDS011;1760;52.480;13.422;2024-01-15T03:02:35;13.23;;;5.33;;
3491;SDS011;1760;52.480;13.422;2024-01-15T03:05:04;9.43;;;4.83;;
3491;SDS011;1760;52.480;13.422;2024-01-15T03:07:31;8.17;;;4.17;;
3491;SDS011;1760;52.480;13.422;2024-01-15T03:09:58;7.70;;;4.30;;
3491;SDS011;1760;52.480;13.422;2024-01-15T03:12:25;6.83;;;3.90;;
3491;SDS011;1760;52.480;13.422;2024-01-15T03:14:54;11.33;;;5.80;;
3491;SDS011;1760;52.480;13.422;2024-01-15T03:17:20;6.97;;;4.90;;
3491;SDS011;1760;52.480;13.422;2024-01-15T03:19:47;14.63;;;5.33;;
3491;SDS011;1760;52.480;13.422;2024-01-15T03:22:14;15.50;;;4.67;;
3491;SDS011;1760;52.480;13.422;2024-01-15T03:24:41;9.33;;;4.80;;
3491;SDS011;1760;52.480;13.422;2024-01-15T03:27:08;7.40;;;4.80;;
3491;SDS011;1760;52.480;13.422;2024-01-15T03:29:35;8.00;;;4.73;;
3491;SDS011;1760;52.480;13.422;2024-01-15T03:32:03;13.33;;;4.30;;
3491;SDS011;1760;52.480;13.422;2024-01-15T03:34:30;6.77;;;4.70;;
3491;SDS011;1760;52.480;13.422;2024-01-15T03:36:57;12.27;;;4.43;;
3491;SDS011;1760;52.480;13.422;2024-01-15T03:39:24;6.70;;;4.67;;
3491;SDS011;1760;52.480;13.422;2024-01-15T03:41:51;10.37;;;4.67;;
3491;SDS011;1760;52.480;13.422;2024-01-15T03:44:18;6.20;;;3.77;;
3491;SDS011;1760;52.480;13.422;2024-01-15T03:46:45;11.00;;;6.37;;
3491;SDS011;1760;52.480;13.422;2024-01-15T03:49:13;8.60;;;5.00;;
3491;SDS011;1760;52.480;13.422;2024-01-15T03:51:40;8.53;;;4.40;;
3491;SDS011;1760;52.480;13.422;2024-01-15T03:54:07;9.20;;;5.20;;
3491;SDS011;1760;52.480;13.422;2024-01-15T03:56:34;8.30;;;4.17;;
3491;SDS011;1760;52.480;13.422;2024-01-15T03:59:01;8.73;;;3.13;;
3491;SDS011;1760;52.480;13.422;2024-01-15T04:01:28;7.20;;;3.77;;
3491;SDS011;1760;52.480;13.422;2024-01-15T04:03:55;11.60;;;5.37;;
3491;SDS011;1760;52.480;13.422;2024-01-15T04:06:23;29.90;;;4.20;;
3491;SDS011;1760;52.480;13.422;2024-01-15T04:08:50;4.80;;;3.40;;
3491;SDS011;1760;52.480;13.422;2024-01-15T04:11:17;5.80;;;3.63;;
3491;SDS011;1760;52.480;13.422;2024-01-15T04:13:44;5.20;;;3.83;;
3491;SDS011;1760;52.480;13.422;2024-01-15T04:16:15;17.10;;;4.20;;
3491;SDS011;1760;52.480;13.422;2024-01-15T04:18:46;13.20;;;4.43;;
3491;SDS011;1760;52.480;13.422;2024-01-15T04:21:13;13.30;;;3.47;;
3491;SDS011;1760;52.480;13.422;2024-01-15T04:23:41;7.53;;;3.60;;
3491;SDS011;1760;52.480;13.422;2024-01-15T04:26:08;8.20;;;4.33;;
3491;SDS011;1760;52.480;13.422;2024-01-15T04:28:35;4.80;;;3.27;;
3491;SDS011;1760;52.480;13.422;2024-01-15T04:31:02;6.43;;;3.07;;
3491;SDS011;1760;52.480;13.422;2024-01-15T04:33:29;5.17;;;3.50;;
3491;SDS011;1760;52.480;13.422;2024-01-15T04:35:56;5.67;;;3.60;;
3491;SDS011;1760;52.480;13.422;2024-01-15T04:38:27;4.10;;;2.80;;
3491;SDS011;1760;52.480;13.422;2024-01-15T04:40:55;6.20;;;3.00;;
3491;SDS011;1760;52.480;13.422;2024-01-15T04:43:22;4.50;;;2.70;;
3491;SDS011;1760;52.480;13.422;2024-01-15T04:45:49;8.93;;;3.00;;
3491;SDS011;1760;52.480;13.422;2024-01-15T04:48:16;6.13;;;3.57;;
3491;SDS011;1760;52.480;13.422;2024-01-15T04:50:43;15.83;;;3.87;;
3491;SDS011;1760;52.480;13.422;2024-01-15T04:53:09;4.63;;;2.10;;
3491;SDS011;1760;52.480;13.422;2024-01-15T04:55:36;12.57;;;2.40;;
3491;SDS011;1760;52.480;13.422;2024-01-15T04:58:05;9.07;;;2.80;;
3491;SDS011;1760;52.480;13.422;2024-01-15T05:00:32;5.43;;;2.90;;
3491;SDS011;1760;52.480;13.422;2024-01-15T05:02:59;3.83;;;2.33;;
3491;SDS011;1760;52.480;13.422;2024-01-15T05:05:27;11.93;;;2.23;;
3491;SDS011;1760;52.480;13.422;2024-01-15T05:07:54;3.10;;;2.10;;
3491;SDS011;1760;52.480;13.422;2024-01-15T05:10:23;4.40;;;1.53;;
3491;SDS011;1760;52.480;13.422;2024-01-15T05:12:50;4.50;;;2.13;;
3491;SDS011;1760;52.480;13.422;2024-01-15T05:15:18;7.40;;;3.70;;
3491;SDS011;1760;52.480;13.422;2024-01-15T05:17:45;3.30;;;1.87;;
3491;SDS011;1760;52.480;13.422;2024-01-15T05:20:11;4.90;;;2.40;;
3491;SDS011;1760;52.480;13.422;2024-01-15T05:22:38;5.00;;;1.90;;
3491;SDS011;1760;52.480;13.422;2024-01-15T05:25:06;4.80;;;2.20;;
3491;SDS011;1760;52.480;13.422;2024-01-15T05:27:33;6.00;;;2.20;;
3491;SDS011;1760;52.480;13.422;2024-01-15T05:29:59;4.40;;;1.60;;
3491;SDS011;1760;52.480;13.422;2024-01-15T05:32:28;2.87;;;1.43;;
3491;SDS011;1760;52.480;13.422;2024-01-15T05:34:54;2.80;;;1.83;;
3491;SDS011;1760;52.480;13.422;2024-01-15T05:37:21;4.10;;;1.83;;
3491;SDS011;1760;52.480;13.422;2024-01-15T05:39:48;5.50;;;2.73;;
3491;SDS011;1760;52.480;13.422;2024-01-15T05:42:15;3.97;;;2.17;;
3491;SDS011;1760;52.480;13.422;2024-01-15T05:44:42;8.60;;;2.27;;
3491;SDS011;1760;52.480;13.422;2024-01-15T05:47:09;6.13;;;2.03;;
3491;SDS011;1760;52.480;13.422;2024-01-15T05:49:37;2.67;;;1.80;;
3491;SDS011;1760;52.480;13.422;2024-01-15T05:52:04;11.23;;;3.00;;
3491;SDS011;1760;52.480;13.422;2024-01-15T05:54:31;5.07;;;1.90;;
3491;SDS011;1760;52.480;13.422;2024-01-15T05:56:58;3.17;;;2.23;;
3491;SDS011;1760;52.480;13.422;2024-01-15T05:59:25;8.90;;;2.37;;
3491;SDS011;1760;52.480;13.422;2024-01-15T06:01:53;4.47;;;1.87;;
3491;SDS011;1760;52.480;13.422;2024-01-15T06:04:20;2.30;;;1.30;;
3491;SDS011;1760;52.480;13.422;2024-01-15T06:06:48;2.30;;;1.70;;
3491;SDS011;1760;52.480;13.422;2024-01-15T06:09:15;3.73;;;1.50;;
3491;SDS011;1760;52.480;13.422;2024-01-15T06:11:42;6.70;;;1.63;;
3491;SDS011;1760;52.480;13.422;2024-01-15T06:14:09;3.67;;;1.73;;
3491;SDS011;1760;52.480;13.422;2024-01-15T06:16:36;2.80;;;1.80;;
3491;SDS011;1760;52.480;13.422;2024-01-15T06:19:03;4.20;;;1.73;;
3491;SDS011;1760;52.480;13.422;2024-01-15T06:21:29;3.87;;;2.30;;
3491;SDS011;1760;52.480;13.422;2024-01-15T06:24:00;4.20;;;1.73;;
3491;SDS011;1760;52.480;13.422;2024-01-15T06:26:27;5.13;;;1.50;;
3491;SDS011;1760;52.480;13.422;2024-01-15T06:28:54;4.07;;;1.50;;
3491;SDS011;1760;52.480;13.422;2024-01-15T06:31:21;8.13;;;1.53;;
3491;SDS011;1760;52.480;13.422;2024-01-15T06:33:48;3.47;;;1.50;;
3491;SDS011;1760;52.480;13.422;2024-01-15T06:36:14;1.57;;;1.30;;
3491;SDS011;1760;52.480;13.422;2024-01-15T06:38:42;2.13;;;1.13;;
3491;SDS011;1760;52.480;13.422;2024-01-15T06:41:11;5.93;;;1.97;;
3491;SDS011;1760;52.480;13.422;2024-01-15T06:43:38;10.33;;;2.83;;
3491;SDS011;1760;52.480;13.422;2024-01-15T06:46:05;5.73;;;2.17;;
3491;SDS011;1760;52.480;13.422;2024-01-15T06:48:32;1.50;;;1.37;;
3491;SDS011;1760;52.480;13.422;2024-01-15T06:51:01;6.00;;;1.63;;
3491;SDS011;1760;52.480;13.422;2024-01-15T06:53:28;3.73;;;1.43;;
3491;SDS011;1760;52.480;13.422;2024-01-15T06:55:55;3.93;;;1.20;;
3491;SDS011;1760;52.480;13.422;2024-01-15T06:58:23;2.60;;;1.23;;
3491;SDS011;1760;52.480;13.422;2024-01-15T07:00:50;3.70;;;1.37;;
3491;SDS011;1760;52.480;13.422;2024-01-15T07:03:17;12.77;;;2.23;;
3491;SDS011;1760;52.480;13.422;2024-01-15T07:05:44;5.87;;;1.70;;
3491;SDS011;1760;52.480;13.422;2024-01-15T07:08:11;3.30;;;1.57;;
3491;SDS011;1760;52.480;13.422;2024-01-15T07:10:38;3.90;;;1.07;;
3491;SDS011;1760;52.480;13.422;2024-01-15T07:13:05;3.73;;;1.53;;
3491;SDS011;1760;52.480;13.422;2024-01-15T07:15:33;2.13;;;1.30;;
3491;SDS011;1760;52.480;13.422;2024-01-15T07:18:00;4.23;;;1.50;;
3491;SDS011;1760;52.480;13.422;2024-01-15T07:20:30;1.67;;;0.83;;
3491;SDS011;1760;52.480;13.422;2024-01-15T07:22:57;3.70;;;1.50;;
3491;SDS011;1760;52.480;13.422;2024-01-15T07:25:24;2.03;;;1.37;;
3491;SDS011;1760;52.480;13.422;2024-01-15T07:27:51;5.33;;;1.60;;
3491;SDS011;1760;52.480;13.422;2024-01-15T07:30:19;1.47;;;1.07;;
3491;SDS011;1760;52.480;13.422;2024-01-15T07:32:50;2.60;;;1.23;;
3491;SDS011;1760;52.480;13.422;2024-01-15T07:35:18;1.87;;;0.90;;
3491;SDS011;1760;52.480;13.422;2024-01-15T07:37:44;2.53;;;1.20;;
3491;SDS011;1760;52.480;13.422;2024-01-15T07:40:11;3.03;;;1.23;;
3491;SDS011;1760;52.480;13.422;2024-01-15T07:42:38;1.23;;;0.90;;
3491;SDS011;1760;52.480;13.422;2024-01-15T07:45:07;2.70;;;1.60;;
3491;SDS011;1760;52.480;13.422;2024-01-15T07:47:34;7.50;;;1.07;;
3491;SDS011;1760;52.480;13.422;2024-01-15T07:50:03;3.63;;;0.90;;
3491;SDS011;1760;52.480;13.422;2024-01-15T07:52:30;2.63;;;1.20;;
3491;SDS011;1760;52.480;13.422;2024-01-15T07:54:57;4.00;;;1.23;;
3491;SDS011;1760;52.480;13.422;2024-01-15T07:57:25;2.93;;;1.73;;
3491;SDS011;1760;52.480;13.422;2024-01-15T07:59:52;2.53;;;1.20;;
3491;SDS011;1760;52.480;13.422;2024-01-15T08:02:19;2.77;;;2.57;;
3491;SDS011;1760;52.480;13.422;2024-01-15T08:04:46;2.50;;;1.07;;
3491;SDS011;1760;52.480;13.422;2024-01-15T08:07:15;3.70;;;0.93;;
3491;SDS011;1760;52.480;13.422;2024-01-15T08:09:44;7.20;;;2.73;;
3491;SDS011;1760;52.480;13.422;2024-01-15T08:12:13;6.80;;;1.63;;
3491;SDS011;1760;52.480;13.422;2024-01-15T08:14:39;4.90;;;1.87;;
3491;SDS011;1760;52.480;13.422;2024-01-15T08:17:08;1.00;;;0.83;;
3491;SDS011;1760;52.480;13.422;2024-01-15T08:19:35;3.87;;;1.80;;
3491;SDS011;1760;52.480;13.422;2024-01-15T08:22:08;7.30;;;1.20;;
3491;SDS011;1760;52.480;13.422;2024-01-15T08:24:40;2.50;;;1.23;;
3491;SDS011;1760;52.480;13.422;2024-01-15T08:27:07;4.20;;;1.27;;
3491;SDS011;1760;52.480;13.422;2024-01-15T08:29:34;10.17;;;1.53;;
3491;SDS011;1760;52.480;13.422;2024-01-15T08:32:07;1.13;;;0.90;;
3491;SDS011;1760;52.480;13.422;2024-01-15T08:34:39;5.60;;;1.63;;
3491;SDS011;1760;52.480;13.422;2024-01-15T08:37:06;2.20;;;1.23;;
3491;SDS011;1760;52.480;13.422;2024-01-15T08:39:33;15.03;;;5.90;;
3491;SDS011;1760;52.480;13.422;2024-01-15T08:42:03;4.40;;;1.93;;
3491;SDS011;1760;52.480;13.422;2024-01-15T08:44:30;6.40;;;1.50;;
3491;SDS011;1760;52.480;13.422;2024-01-15T08:47:00;10.03;;;0.90;;
3491;SDS011;1760;52.480;13.422;2024-01-15T08:49:28;7.80;;;2.27;;
3491;SDS011;1760;52.480;13.422;2024-01-15T08:52:05;5.70;;;1.10;;
3491;SDS011;1760;52.480;13.422;2024-01-15T08:54:32;3.50;;;2.90;;
3491;SDS011;1760;52.480;13.422;2024-01-15T08:56:59;2.20;;;1.03;;
3491;SDS011;1760;52.480;13.422;2024-01-15T08:59:27;5.10;;;1.63;;
3491;SDS011;1760;52.480;13.422;2024-01-15T09:01:54;4.23;;;1.03;;
3491;SDS011;1760;52.480;13.422;2024-01-15T09:04:22;4.87;;;1.50;;
3491;SDS011;1760;52.480;13.422;2024-01-15T09:06:49;2.10;;;1.17;;
3491;SDS011;1760;52.480;13.422;2024-01-15T09:09:16;5.13;;;1.67;;
3491;SDS011;1760;52.480;13.422;2024-01-15T09:11:44;1.00;;;0.70;;
3491;SDS011;1760;52.480;13.422;2024-01-15T09:14:13;4.17;;;1.07;;
3491;SDS011;1760;52.480;13.422;2024-01-15T09:16:41;6.27;;;2.60;;
3491;SDS011;1760;52.480;13.422;2024-01-15T09:19:08;5.20;;;1.20;;
3491;SDS011;1760;52.480;13.422;2024-01-15T09:21:35;6.20;;;1.50;;
3491;SDS011;1760;52.480;13.422;2024-01-15T09:24:04;2.53;;;0.97;;
3491;SDS011;1760;52.480;13.422;2024-01-15T09:26:31;2.50;;;1.00;;
3491;SDS011;1760;52.480;13.422;2024-01-15T09:28:58;4.27;;;1.50;;
3491;SDS011;1760;52.480;13.422;2024-01-15T09:31:26;1.70;;;1.00;;
3491;SDS011;1760;52.480;13.422;2024-01-15T09:33:54;1.80;;;1.07;;
3491;SDS011;1760;52.480;13.422;2024-01-15T09:36:23;4.90;;;1.37;;
3491;SDS011;1760;52.480;13.422;2024-01-15T09:38:50;8.50;;;1.20;;
3491;SDS011;1760;52.480;13.422;2024-01-15T09:41:17;4.77;;;1.33;;
3491;SDS011;1760;52.480;13.422;2024-01-15T09:43:44;3.70;;;1.53;;
3491;SDS011;1760;52.480;13.422;2024-01-15T09:46:12;1.83;;;1.20;;
3491;SDS011;1760;52.480;13.422;2024-01-15T09:48:39;7.23;;;1.23;;
3491;SDS011;1760;52.480;13.422;2024-01-15T09:51:08;1.97;;;1.03;;
3491;SDS011;1760;52.480;13.422;2024-01-15T09:53:35;4.23;;;1.10;;
3491;SDS011;1760;52.480;13.422;2024-01-15T09:56:05;3.13;;;1.40;;
3491;SDS011;1760;52.480;13.422;2024-01-15T09:58:34;4.60;;;1.70;;
3491;SDS011;1760;52.480;13.422;2024-01-15T10:01:02;3.10;;;1.37;;
3491;SDS011;1760;52.480;13.422;2024-01-15T10:03:31;1.30;;;0.70;;
3491;SDS011;1760;52.480;13.422;2024-01-15T10:06:03;2.73;;;1.70;;
3491;SDS011;1760;52.480;13.422;2024-01-15T10:08:33;4.63;;;1.20;;
3491;SDS011;1760;52.480;13.422;2024-01-15T10:11:07;8.40;;;1.80;;
3491;SDS011;1760;52.480;13.422;2024-01-15T10:13:40;4.30;;;1.50;;
3491;SDS011;1760;52.480;13.422;2024-01-15T10:16:17;2.60;;;1.37;;
3491;SDS011;1760;52.480;13.422;2024-01-15T10:18:44;1.27;;;1.00;;
3491;SDS011;1760;52.480;13.422;2024-01-15T10:21:28;6.03;;;1.03;;
3491;SDS011;1760;52.480;13.422;2024-01-15T10:24:02;6.23;;;2.17;;
3491;SDS011;1760;52.480;13.422;2024-01-15T10:26:30;6.60;;;1.93;;
3491;SDS011;1760;52.480;13.422;2024-01-15T10:29:00;2.23;;;1.20;;
3491;SDS011;1760;52.480;13.422;2024-01-15T10:31:35;2.70;;;1.30;;
3491;SDS011;1760;52.480;13.422;2024-01-15T10:34:11;4.13;;;1.50;;
3491;SDS011;1760;52.480;13.422;2024-01-15T10:36:40;2.70;;;1.17;;
3491;SDS011;1760;52.480;13.422;2024-01-15T10:39:09;7.07;;;1.80;;
3491;SDS011;1760;52.480;13.422;2024-01-15T10:41:39;1.40;;;1.10;;
3491;SDS011;1760;52.480;13.422;2024-01-15T10:44:06;2.03;;;1.30;;
3491;SDS011;1760;52.480;13.422;2024-01-15T10:46:33;4.17;;;0.97;;
3491;SDS011;1760;52.480;13.422;2024-01-15T10:49:01;2.73;;;1.43;;
3491;SDS011;1760;52.480;13.422;2024-01-15T10:51:31;1.77;;;1.10;;
3491;SDS011;1760;52.480;13.422;2024-01-15T10:54:12;7.00;;;1.80;;
3491;SDS011;1760;52.480;13.422;2024-01-15T10:56:40;3.47;;;1.27;;
3491;SDS011;1760;52.480;13.422;2024-01-15T10:59:08;6.27;;;0.90;;
3491;SDS011;1760;52.480;13.422;2024-01-15T11:01:36;1.40;;;1.20;;
3491;SDS011;1760;52.480;13.422;2024-01-15T11:04:09;2.17;;;1.03;;
3491;SDS011;1760;52.480;13.422;2024-01-15T11:06:43;3.03;;;1.20;;
3491;SDS011;1760;52.480;13.422;2024-01-15T11:09:13;2.53;;;1.33;;
3491;SDS011;1760;52.480;13.422;2024-01-15T11:11:43;5.33;;;0.80;;
3491;SDS011;1760;52.480;13.422;2024-01-15T11:14:18;11.77;;;1.47;;
3491;SDS011;1760;52.480;13.422;2024-01-15T11:17:00;2.10;;;0.80;;
3491;SDS011;1760;52.480;13.422;2024-01-15T11:19:42;1.43;;;0.70;;
3491;SDS011;1760;52.480;13.422;2024-01-15T11:22:10;3.50;;;0.83;;
3491;SDS011;1760;52.480;13.422;2024-01-15T11:25:19;1.40;;;0.80;;
3491;SDS011;1760;52.480;13.422;2024-01-15T11:27:51;1.53;;;1.03;;
3491;SDS011;1760;52.480;13.422;2024-01-15T11:30:24;5.67;;;1.00;;
3491;SDS011;1760;52.480;13.422;2024-01-15T11:32:52;2.80;;;1.00;;
3491;SDS011;1760;52.480;13.422;2024-01-15T11:35:19;5.30;;;1.60;;
3491;SDS011;1760;52.480;13.422;2024-01-15T11:37:58;5.00;;;1.07;;
3491;SDS011;1760;52.480;13.422;2024-01-15T11:40:37;19.23;;;2.27;;
3491;SDS011;1760;52.480;13.422;2024-01-15T11:43:07;2.90;;;2.10;;
3491;SDS011;1760;52.480;13.422;2024-01-15T11:45:35;7.10;;;1.70;;
3491;SDS011;1760;52.480;13.422;2024-01-15T11:48:13;3.83;;;0.97;;
3491;SDS011;1760;52.480;13.422;2024-01-15T11:50:42;1.00;;;0.80;;
3491;SDS011;1760;52.480;13.422;2024-01-15T11:53:15;0.93;;;0.77;;
3491;SDS011;1760;52.480;13.422;2024-01-15T11:55:46;2.43;;;1.10;;
3491;SDS011;1760;52.480;13.422;2024-01-15T11:58:14;2.27;;;1.80;;
3491;SDS011;1760;52.480;13.422;2024-01-15T12:00:42;3.40;;;1.47;;
3491;SDS011;1760;52.480;13.422;2024-01-15T12:03:10;1.93;;;1.20;;
3491;SDS011;1760;52.480;13.422;2024-01-15T12:05:38;1.30;;;1.00;;
3491;SDS011;1760;52.480;13.422;2024-01-15T12:08:07;1.80;;;0.87;;
3491;SDS011;1760;52.480;13.422;2024-01-15T12:10:36;2.73;;;1.03;;
3491;SDS011;1760;52.480;13.422;2024-01-15T12:13:09;6.33;;;1.93;;
3491;SDS011;1760;52.480;13.422;2024-01-15T12:15:38;6.13;;;1.00;;
3491;SDS011;1760;52.480;13.422;2024-01-15T12:18:07;1.27;;;0.80;;
3491;SDS011;1760;52.480;13.422;2024-01-15T12:20:39;2.10;;;1.10;;
3491;SDS011;1760;52.480;13.422;2024-01-15T12:23:09;1.33;;;1.00;;
3491;SDS011;1760;52.480;13.422;2024-01-15T12:25:38;1.37;;;0.97;;
3491;SDS011;1760;52.480;13.422;2024-01-15T12:28:10;2.27;;;1.23;;
3491;SDS011;1760;52.480;13.422;2024-01-15T12:30:37;1.87;;;1.10;;
3491;SDS011;1760;52.480;13.422;2024-01-15T12:33:06;2.90;;;0.70;;
3491;SDS011;1760;52.480;13.422;2024-01-15T12:35:34;1.47;;;1.03;;
3491;SDS011;1760;52.480;13.422;2024-01-15T12:38:01;1.50;;;1.10;;
3491;SDS011;1760;52.480;13.422;2024-01-15T12:40:31;1.87;;;1.00;;
3491;SDS011;1760;52.480;13.422;2024-01-15T12:42:59;3.83;;;1.00;;
3491;SDS011;1760;52.480;13.422;2024-01-15T12:45:31;4.73;;;1.20;;
3491;SDS011;1760;52.480;13.422;2024-01-15T12:47:58;3.30;;;1.43;;
3491;SDS011;1760;52.480;13.422;2024-01-15T12:50:25;2.10;;;0.90;;
3491;SDS011;1760;52.480;13.422;2024-01-15T12:52:53;1.10;;;0.87;;
3491;SDS011;1760;52.480;13.422;2024-01-15T12:55:20;1.30;;;1.10;;
3491;SDS011;1760;52.480;13.422;2024-01-15T12:57:47;1.10;;;0.60;;
3491;SDS011;1760;52.480;13.422;2024-01-15T13:00:19;1.40;;;1.00;;
3491;SDS011;1760;52.480;13.422;2024-01-15T13:02:49;1.77;;;1.10;;
3491;SDS011;1760;52.480;13.422;2024-01-15T13:05:16;1.47;;;1.17;;
3491;SDS011;1760;52.480;13.422;2024-01-15T13:07:46;1.50;;;1.20;;
3491;SDS011;1760;52.480;13.422;2024-01-15T13:10:13;9.70;;;1.47;;
3491;SDS011;1760;52.480;13.422;2024-01-15T13:12:40;3.60;;;1.50;;
3491;SDS011;1760;52.480;13.422;2024-01-15T13:15:07;2.80;;;1.07;;
3491;SDS011;1760;52.480;13.422;2024-01-15T13:17:37;2.30;;;0.90;;
3491;SDS011;1760;52.480;13.422;2024-01-15T13:20:07;1.37;;;1.03;;
3491;SDS011;1760;52.480;13.422;2024-01-15T13:22:36;5.43;;;1.00;;
3491;SDS011;1760;52.480;13.422;2024-01-15T13:25:05;2.03;;;0.87;;
3491;SDS011;1760;52.480;13.422;2024-01-15T13:27:32;2.50;;;1.40;;
3491;SDS011;1760;52.480;13.422;2024-01-15T13:30:02;1.30;;;1.07;;
3491;SDS011;1760;52.480;13.422;2024-01-15T13:32:29;1.47;;;0.83;;
3491;SDS011;1760;52.480;13.422;2024-01-15T13:34:56;3.63;;;1.00;;
3491;SDS011;1760;52.480;13.422;2024-01-15T13:37:43;2.47;;;1.20;;
3491;SDS011;1760;52.480;13.422;2024-01-15T13:40:10;2.00;;;1.00;;
3491;SDS011;1760;52.480;13.422;2024-01-15T13:42:43;2.60;;;0.80;;
3491;SDS011;1760;52.480;13.422;2024-01-15T13:45:12;1.17;;;0.90;;
3491;SDS011;1760;52.480;13.422;2024-01-15T13:47:40;1.73;;;1.40;;
3491;SDS011;1760;52.480;13.422;2024-01-15T13:50:09;4.17;;;1.10;;
3491;SDS011;1760;52.480;13.422;2024-01-15T13:52:36;1.73;;;0.90;;
3491;SDS011;1760;52.480;13.422;2024-01-15T13:55:06;1.37;;;1.17;;
3491;SDS011;1760;52.480;13.422;2024-01-15T13:57:33;1.37;;;1.00;;
3491;SDS011;1760;52.480;13.422;2024-01-15T14:00:00;2.27;;;1.03;;
3491;SDS011;1760;52.480;13.422;2024-01-15T14:02:34;1.73;;;0.87;;
3491;SDS011;1760;52.480;13.422;2024-01-15T14:05:01;13.53;;;1.83;;
3491;SDS011;1760;52.480;13.422;2024-01-15T14:07:31;2.50;;;1.17;;
3491;SDS011;1760;52.480;13.422;2024-01-15T14:10:01;1.73;;;1.27;;
3491;SDS011;1760;52.480;13.422;2024-01-15T14:12:31;7.00;;;1.17;;
3491;SDS011;1760;52.480;13.422;2024-01-15T14:15:00;0.90;;;0.50;;
3491;SDS011;1760;52.480;13.422;2024-01-15T14:17:28;2.80;;;1.17;;
3491;SDS011;1760;52.480;13.422;2024-01-15T14:19:54;1.30;;;0.87;;
3491;SDS011;1760;52.480;13.422;2024-01-15T14:22:23;1.10;;;0.90;;
3491;SDS011;1760;52.480;13.422;2024-01-15T14:24:53;4.60;;;1.77;;
3491;SDS011;1760;52.480;13.422;2024-01-15T14:27:20;1.90;;;1.10;;
3491;SDS011;1760;52.480;13.422;2024-01-15T14:29:52;2.37;;;1.30;;
3491;SDS011;1760;52.480;13.422;2024-01-15T14:32:18;2.43;;;1.00;;
3491;SDS011;1760;52.480;13.422;2024-01-15T14:34:45;3.53;;;0.90;;
3491;SDS011;1760;52.480;13.422;2024-01-15T14:37:13;3.13;;;1.37;;
3491;SDS011;1760;52.480;13.422;2024-01-15T14:39:40;2.20;;;1.17;;
3491;SDS011;1760;52.480;13.422;2024-01-15T14:42:08;3.23;;;1.00;;
3491;SDS011;1760;52.480;13.422;2024-01-15T14:44:36;3.00;;;1.80;;
3491;SDS011;1760;52.480;13.422;2024-01-15T14:47:06;2.40;;;1.10;;
3491;SDS011;1760;52.480;13.422;2024-01-15T14:49:33;1.57;;;0.90;;
3491;SDS011;1760;52.480;13.422;2024-01-15T14:52:00;1.17;;;0.83;;
3491;SDS011;1760;52.480;13.422;2024-01-15T14:54:27;4.57;;;1.13;;
3491;SDS011;1760;52.480;13.422;2024-01-15T14:56:54;3.50;;;1.93;;
3491;SDS011;1760;52.480;13.422;2024-01-15T14:59:22;5.83;;;1.20;;
3491;SDS011;1760;52.480;13.422;2024-01-15T15:01:51;14.13;;;1.80;;
3491;SDS011;1760;52.480;13.422;2024-01-15T15:04:20;3.17;;;1.37;;
3491;SDS011;1760;52.480;13.422;2024-01-15T15:06:47;5.80;;;1.33;;